createdAt,value
2018-03-02T00:00:59.172Z,0
2018-03-02T00:02:08.891Z,0
2018-03-02T00:03:18.606Z,0
2018-03-02T00:04:28.055Z,0
2018-03-02T00:05:38.060Z,0
2018-03-02T00:06:48.045Z,0
2018-03-02T00:07:57.766Z,0
2018-03-02T00:09:07.493Z,0
2018-03-02T00:10:17.205Z,0
2018-03-02T00:11:27.197Z,0
2018-03-02T00:12:36.963Z,0
2018-03-02T00:13:46.949Z,0
2018-03-02T00:14:56.940Z,0
2018-03-02T00:16:06.929Z,0
2018-03-02T00:17:16.912Z,0
2018-03-02T00:18:26.360Z,0
2018-03-02T00:19:35.808Z,0
2018-03-02T00:20:45.524Z,0
2018-03-02T00:21:55.241Z,0
2018-03-02T00:23:05.232Z,0
2018-03-02T00:24:14.949Z,0
2018-03-02T00:25:24.934Z,0
2018-03-02T00:26:34.645Z,0
2018-03-02T00:27:44.373Z,0
2018-03-02T00:28:54.350Z,0
2018-03-02T00:30:04.078Z,0
2018-03-02T00:31:14.060Z,0
2018-03-02T00:32:24.080Z,0
2018-03-02T00:33:34.063Z,0
2018-03-02T00:34:43.781Z,0
2018-03-02T00:35:53.761Z,0
2018-03-02T00:37:03.745Z,0
2018-03-02T00:38:13.457Z,0
2018-03-02T00:39:23.436Z,0
2018-03-02T00:40:33.418Z,0
2018-03-02T00:41:43.404Z,0
2018-03-02T00:42:53.218Z,0
2018-03-02T00:44:03.207Z,0
2018-03-02T00:45:12.979Z,0
2018-03-02T00:46:22.972Z,0
2018-03-02T00:47:32.692Z,0
2018-03-02T00:48:42.140Z,0
2018-03-02T00:49:52.133Z,0
2018-03-02T00:51:02.111Z,0
2018-03-02T00:52:11.556Z,0
2018-03-02T00:53:21.542Z,0
2018-03-02T00:54:30.818Z,0
2018-03-02T00:55:40.531Z,0
2018-03-02T00:56:50.511Z,0
2018-03-02T00:58:00.487Z,0
2018-03-02T00:59:10.483Z,0
2018-03-02T01:00:20.198Z,0
2018-03-02T01:01:29.649Z,0
2018-03-02T01:02:39.092Z,0
2018-03-02T01:03:48.805Z,0
2018-03-02T01:04:58.790Z,0
2018-03-02T01:06:08.506Z,0
2018-03-02T01:07:18.224Z,0
2018-03-02T01:08:28.206Z,0
2018-03-02T01:09:37.928Z,0
2018-03-02T01:10:47.374Z,0
2018-03-02T01:11:57.082Z,0
2018-03-02T01:13:07.059Z,0
2018-03-02T01:14:17.035Z,0
2018-03-02T01:15:27.011Z,0
2018-03-02T01:16:36.999Z,0
2018-03-02T01:17:46.708Z,0
2018-03-02T01:18:56.681Z,0
2018-03-02T01:20:06.662Z,0
2018-03-02T01:21:16.376Z,0
2018-03-02T01:22:25.820Z,0
2018-03-02T01:23:35.542Z,0
2018-03-02T01:24:45.257Z,0
2018-03-02T01:25:54.966Z,0
2018-03-02T01:27:04.677Z,0
2018-03-02T01:28:14.660Z,0
2018-03-02T01:29:24.423Z,0
2018-03-02T01:30:34.405Z,0
2018-03-02T01:31:44.390Z,0
2018-03-02T01:32:53.835Z,0
2018-03-02T01:34:03.815Z,0
2018-03-02T01:35:13.531Z,0
2018-03-02T01:36:23.260Z,0
2018-03-02T01:37:33.245Z,0
2018-03-02T01:38:42.957Z,0
2018-03-02T01:39:52.943Z,0
2018-03-02T01:41:02.655Z,0
2018-03-02T01:42:12.636Z,0
2018-03-02T01:43:22.615Z,0
2018-03-02T01:44:32.331Z,0
2018-03-02T01:45:42.312Z,0
2018-03-02T01:46:52.342Z,0
2018-03-02T01:48:02.314Z,0
2018-03-02T01:49:12.035Z,0
2018-03-02T01:50:22.017Z,0
2018-03-02T01:51:31.729Z,0
2018-03-02T01:52:41.709Z,0
2018-03-02T01:53:51.694Z,0
2018-03-02T01:55:01.682Z,0
2018-03-02T01:56:11.127Z,0
2018-03-02T01:57:21.112Z,0
2018-03-02T01:58:30.554Z,0
2018-03-02T01:59:39.740Z,0
2018-03-02T02:00:49.187Z,0
2018-03-02T02:01:59.165Z,0
2018-03-02T02:03:08.344Z,0
2018-03-02T02:04:18.330Z,0
2018-03-02T02:05:27.779Z,0
2018-03-02T02:06:37.489Z,0
2018-03-02T02:07:47.466Z,0
2018-03-02T02:08:57.443Z,0
2018-03-02T02:10:06.891Z,0
2018-03-02T02:11:16.610Z,0
2018-03-02T02:12:25.790Z,0
2018-03-02T02:13:35.778Z,0
2018-03-02T02:14:45.495Z,0
2018-03-02T02:15:55.199Z,0
2018-03-02T02:17:04.909Z,0
2018-03-02T02:18:14.893Z,0
2018-03-02T02:19:24.608Z,0
2018-03-02T02:20:33.784Z,0
2018-03-02T02:21:43.505Z,0
2018-03-02T02:22:53.490Z,0
2018-03-02T02:24:03.474Z,0
2018-03-02T02:25:13.195Z,0
2018-03-02T02:26:23.170Z,0
2018-03-02T02:27:32.889Z,0
2018-03-02T02:28:42.863Z,0
2018-03-02T02:29:52.847Z,0
2018-03-02T02:31:02.566Z,0
2018-03-02T02:32:12.036Z,0
2018-03-02T02:33:22.133Z,0
2018-03-02T02:34:31.856Z,0
2018-03-02T02:35:41.312Z,0
2018-03-02T02:36:51.299Z,0
2018-03-02T02:38:01.290Z,0
2018-03-02T02:39:11.112Z,0
2018-03-02T02:40:21.282Z,0
2018-03-02T02:41:31.003Z,0
2018-03-02T02:42:40.995Z,0
2018-03-02T02:43:50.978Z,0
2018-03-02T02:45:00.973Z,0
2018-03-02T02:46:10.965Z,0
2018-03-02T02:47:20.963Z,0
2018-03-02T02:48:30.680Z,0
2018-03-02T02:49:40.670Z,0
2018-03-02T02:50:50.681Z,0
2018-03-02T02:52:00.668Z,0
2018-03-02T02:53:10.667Z,0
2018-03-02T02:54:20.648Z,0
2018-03-02T02:55:30.644Z,0
2018-03-02T02:56:40.112Z,0
2018-03-02T02:57:49.824Z,0
2018-03-02T02:58:59.805Z,0
2018-03-02T03:00:09.536Z,0
2018-03-02T03:01:19.263Z,0
2018-03-02T03:02:29.255Z,0
2018-03-02T03:03:39.255Z,0
2018-03-02T03:04:49.245Z,0
2018-03-02T03:05:58.961Z,0
2018-03-02T03:07:08.670Z,0
2018-03-02T03:08:18.382Z,0
2018-03-02T03:09:28.089Z,0
2018-03-02T03:10:37.834Z,0
2018-03-02T03:11:47.813Z,0
2018-03-02T03:12:57.792Z,0
2018-03-02T03:14:07.783Z,0
2018-03-02T03:15:17.764Z,0
2018-03-02T03:16:27.478Z,0
2018-03-02T03:17:37.463Z,0
2018-03-02T03:18:47.174Z,0
2018-03-02T03:19:57.405Z,0
2018-03-02T03:21:07.118Z,0
2018-03-02T03:22:16.831Z,0
2018-03-02T03:23:26.809Z,0
2018-03-02T03:24:36.792Z,0
2018-03-02T03:25:46.503Z,0
2018-03-02T03:26:56.483Z,0
2018-03-02T03:28:05.931Z,0
2018-03-02T03:29:15.923Z,0
2018-03-02T03:30:25.649Z,0
2018-03-02T03:31:35.124Z,0
2018-03-02T03:32:44.838Z,0
2018-03-02T03:33:54.279Z,0
2018-03-02T03:35:04.261Z,0
2018-03-02T03:36:14.253Z,0
2018-03-02T03:37:23.567Z,0
2018-03-02T03:38:33.288Z,0
2018-03-02T03:39:43.268Z,0
2018-03-02T03:40:53.247Z,0
2018-03-02T03:42:03.228Z,0
2018-03-02T03:43:12.942Z,0
2018-03-02T03:44:22.386Z,0
2018-03-02T03:45:32.100Z,0
2018-03-02T03:46:42.080Z,0
2018-03-02T03:47:51.787Z,0
2018-03-02T03:49:01.493Z,0
2018-03-02T03:50:11.209Z,0
2018-03-02T03:51:21.379Z,0
2018-03-02T03:52:31.363Z,0
2018-03-02T03:53:41.337Z,0
2018-03-02T03:54:50.780Z,0
2018-03-02T03:56:00.488Z,0
2018-03-02T03:57:09.938Z,0
2018-03-02T03:58:19.921Z,0
2018-03-02T03:59:28.834Z,0
2018-03-02T04:03:29.478Z,0
2018-03-02T04:04:39.459Z,0
2018-03-02T04:05:49.176Z,0
2018-03-02T04:06:59.146Z,0
2018-03-02T04:08:09.134Z,0
2018-03-02T04:09:18.849Z,0
2018-03-02T04:10:28.828Z,0
2018-03-02T04:11:38.820Z,0
2018-03-02T04:12:48.542Z,0
2018-03-02T04:13:58.260Z,0
2018-03-02T04:15:08.237Z,0
2018-03-02T04:16:18.214Z,0
2018-03-02T04:17:27.393Z,0
2018-03-02T04:18:37.112Z,0
2018-03-02T04:19:47.098Z,0
2018-03-02T04:20:57.077Z,0
2018-03-02T04:22:06.523Z,0
2018-03-02T04:23:16.292Z,0
2018-03-02T04:24:26.323Z,0
2018-03-02T04:25:36.302Z,0
2018-03-02T04:26:46.389Z,0
2018-03-02T04:27:56.099Z,0
2018-03-02T04:29:06.091Z,0
2018-03-02T04:30:16.079Z,0
2018-03-02T04:31:26.059Z,0
2018-03-02T04:32:35.772Z,0
2018-03-02T04:33:45.748Z,0
2018-03-02T04:34:55.736Z,0
2018-03-02T04:36:05.446Z,0
2018-03-02T04:37:15.152Z,0
2018-03-02T04:38:24.698Z,0
2018-03-02T04:39:34.680Z,0
2018-03-02T04:40:44.127Z,0
2018-03-02T04:41:53.837Z,0
2018-03-02T04:43:03.283Z,0
2018-03-02T04:44:12.999Z,0
2018-03-02T04:45:22.710Z,0
2018-03-02T04:46:32.746Z,0
2018-03-02T04:47:42.458Z,0
2018-03-02T04:48:52.431Z,0
2018-03-02T04:50:02.423Z,0
2018-03-02T04:51:12.401Z,0
2018-03-02T04:52:22.287Z,0
2018-03-02T04:53:32.005Z,0
2018-03-02T04:54:41.980Z,0
2018-03-02T04:55:51.698Z,0
2018-03-02T04:57:01.412Z,0
2018-03-02T04:58:11.130Z,0
2018-03-02T04:59:20.836Z,0
2018-03-02T05:00:30.824Z,0
2018-03-02T05:01:40.544Z,0
2018-03-02T05:02:50.537Z,0
2018-03-02T05:04:00.262Z,0
2018-03-02T05:05:09.982Z,0
2018-03-02T05:06:19.971Z,0
2018-03-02T05:07:29.951Z,0
2018-03-02T05:08:39.952Z,0
2018-03-02T05:09:49.931Z,0
2018-03-02T05:10:59.911Z,0
2018-03-02T05:12:09.632Z,0
2018-03-02T05:13:19.089Z,0
2018-03-02T05:14:29.061Z,0
2018-03-02T05:15:39.041Z,0
2018-03-02T05:16:49.051Z,0
2018-03-02T05:17:59.034Z,0
2018-03-02T05:19:08.791Z,0
2018-03-02T05:20:18.840Z,0
2018-03-02T05:21:28.823Z,0
2018-03-02T05:22:38.533Z,0
2018-03-02T05:23:48.510Z,0
2018-03-02T05:24:58.495Z,0
2018-03-02T05:26:08.470Z,0
2018-03-02T05:27:18.456Z,0
2018-03-02T05:28:28.486Z,0
2018-03-02T05:29:38.479Z,0
2018-03-02T05:30:48.458Z,0
2018-03-02T05:31:58.451Z,0
2018-03-02T05:33:08.162Z,0
2018-03-02T05:34:18.136Z,0
2018-03-02T05:35:28.117Z,0
2018-03-02T05:36:38.096Z,0
2018-03-02T05:37:47.807Z,0
2018-03-02T05:38:57.529Z,0
2018-03-02T05:40:07.248Z,0
2018-03-02T05:41:16.972Z,0
2018-03-02T05:42:26.686Z,0
2018-03-02T05:43:36.421Z,0
2018-03-02T05:44:46.132Z,0
2018-03-02T05:45:55.950Z,0
2018-03-02T05:47:05.672Z,0
2018-03-02T05:48:15.658Z,0
2018-03-02T05:49:25.634Z,0
2018-03-02T05:50:35.352Z,0
2018-03-02T05:51:45.068Z,0
2018-03-02T05:52:55.092Z,0
2018-03-02T05:54:04.801Z,0
2018-03-02T05:55:14.242Z,0
2018-03-02T05:56:23.690Z,0
2018-03-02T05:57:33.404Z,0
2018-03-02T05:58:43.387Z,0
2018-03-02T05:59:53.097Z,0
2018-03-02T06:01:03.078Z,0
2018-03-02T06:02:13.057Z,0
2018-03-02T06:03:22.779Z,0
2018-03-02T06:04:32.498Z,5
2018-03-02T06:05:42.478Z,5
2018-03-02T06:06:52.514Z,5
2018-03-02T06:08:02.500Z,5
2018-03-02T06:09:12.217Z,5
2018-03-02T06:10:21.930Z,5
2018-03-02T06:11:31.914Z,5
2018-03-02T06:12:41.898Z,5
2018-03-02T06:13:51.879Z,10
2018-03-02T06:15:01.863Z,10
2018-03-02T06:16:11.590Z,10
2018-03-02T06:17:21.675Z,10
2018-03-02T06:18:31.654Z,10
2018-03-02T06:19:41.365Z,10
2018-03-02T06:20:51.084Z,15
2018-03-02T06:22:00.816Z,15
2018-03-02T06:23:10.257Z,15
2018-03-02T06:24:19.989Z,15
2018-03-02T06:25:29.970Z,15
2018-03-02T06:26:39.943Z,20
2018-03-02T06:27:49.920Z,20
2018-03-02T06:28:59.900Z,20
2018-03-02T06:30:09.882Z,20
2018-03-02T06:31:19.603Z,25
2018-03-02T06:32:29.586Z,25
2018-03-02T06:33:39.562Z,25
2018-03-02T06:34:49.276Z,30
2018-03-02T06:35:59.263Z,30
2018-03-02T06:37:09.333Z,35
2018-03-02T06:38:19.050Z,35
2018-03-02T06:39:28.764Z,35
2018-03-02T06:40:38.752Z,40
2018-03-02T06:41:48.722Z,40
2018-03-02T06:42:58.177Z,45
2018-03-02T06:44:08.165Z,45
2018-03-02T06:45:17.630Z,50
2018-03-02T06:46:27.606Z,55
2018-03-02T06:47:37.603Z,55
2018-03-02T06:48:47.316Z,60
2018-03-02T06:49:56.767Z,60
2018-03-02T06:51:06.220Z,65
2018-03-02T06:52:15.931Z,65
2018-03-02T06:53:25.914Z,65
2018-03-02T06:54:35.902Z,65
2018-03-02T06:55:45.616Z,65
2018-03-02T06:56:55.602Z,70
2018-03-02T06:58:05.044Z,70
2018-03-02T06:59:15.019Z,80
2018-03-02T07:00:25.003Z,75
2018-03-02T07:01:34.715Z,80
2018-03-02T07:02:44.702Z,80
2018-03-02T07:03:54.152Z,85
2018-03-02T07:05:04.136Z,85
2018-03-02T07:06:13.587Z,90
2018-03-02T07:07:23.033Z,90
2018-03-02T07:08:32.742Z,90
2018-03-02T07:09:42.202Z,95
2018-03-02T07:10:52.183Z,95
2018-03-02T07:12:01.633Z,95
2018-03-02T07:13:11.613Z,100
2018-03-02T07:14:21.594Z,100
2018-03-02T07:15:31.576Z,100
2018-03-02T07:16:41.561Z,105
2018-03-02T07:17:51.010Z,105
2018-03-02T07:19:00.991Z,105
2018-03-02T07:20:10.718Z,110
2018-03-02T07:21:20.538Z,110
2018-03-02T07:22:30.519Z,110
2018-03-02T07:23:39.966Z,115
2018-03-02T07:24:49.948Z,115
2018-03-02T07:25:59.659Z,115
2018-03-02T07:27:09.654Z,120
2018-03-02T07:28:19.146Z,120
2018-03-02T07:29:28.960Z,125
2018-03-02T07:30:38.672Z,125
2018-03-02T07:31:48.662Z,130
2018-03-02T07:32:58.368Z,130
2018-03-02T07:34:08.370Z,130
2018-03-02T07:35:18.364Z,135
2018-03-02T07:36:28.353Z,135
2018-03-02T07:37:38.066Z,145
2018-03-02T07:38:48.053Z,140
2018-03-02T07:39:57.498Z,145
2018-03-02T07:41:07.256Z,145
2018-03-02T07:42:16.972Z,150
2018-03-02T07:43:26.685Z,155
2018-03-02T07:44:36.773Z,155
2018-03-02T07:45:46.487Z,160
2018-03-02T07:46:56.211Z,160
2018-03-02T07:48:06.195Z,160
2018-03-02T07:49:15.916Z,165
2018-03-02T07:50:25.631Z,165
2018-03-02T07:51:35.343Z,165
2018-03-02T07:52:45.322Z,165
2018-03-02T07:53:55.309Z,165
2018-03-02T07:55:05.028Z,160
2018-03-02T07:56:15.022Z,160
2018-03-02T07:57:24.776Z,155
2018-03-02T07:58:34.453Z,155
2018-03-02T07:59:44.174Z,155
2018-03-02T08:00:54.164Z,150
2018-03-02T08:02:03.881Z,155
2018-03-02T08:03:13.865Z,155
2018-03-02T08:04:23.886Z,155
2018-03-02T08:05:33.878Z,160
2018-03-02T08:06:43.613Z,165
2018-03-02T08:07:53.329Z,170
2018-03-02T08:09:03.315Z,175
2018-03-02T08:10:13.339Z,180
2018-03-02T08:11:23.056Z,185
2018-03-02T08:12:33.036Z,190
2018-03-02T08:13:42.753Z,195
2018-03-02T08:14:52.486Z,200
2018-03-02T08:16:02.478Z,205
2018-03-02T08:17:12.201Z,210
2018-03-02T08:18:22.183Z,215
2018-03-02T08:19:31.898Z,220
2018-03-02T08:20:41.885Z,225
2018-03-02T08:21:51.874Z,225
2018-03-02T08:23:01.863Z,230
2018-03-02T08:24:11.854Z,230
2018-03-02T08:25:21.839Z,230
2018-03-02T08:26:31.849Z,230
2018-03-02T08:27:41.565Z,225
2018-03-02T08:28:51.555Z,225
2018-03-02T08:30:01.545Z,220
2018-03-02T08:31:10.995Z,215
2018-03-02T08:32:20.982Z,215
2018-03-02T08:33:30.988Z,210
2018-03-02T08:34:40.702Z,210
2018-03-02T08:35:50.419Z,215
2018-03-02T08:37:00.410Z,215
2018-03-02T08:38:10.403Z,220
2018-03-02T08:39:19.852Z,225
2018-03-02T08:40:30.158Z,235
2018-03-02T08:41:39.870Z,240
2018-03-02T08:42:49.880Z,250
2018-03-02T08:43:59.876Z,255
2018-03-02T08:45:09.603Z,260
2018-03-02T08:46:19.322Z,275
2018-03-02T08:47:29.042Z,280
2018-03-02T08:48:38.756Z,295
2018-03-02T08:49:48.743Z,305
2018-03-02T08:50:58.461Z,315
2018-03-02T08:52:07.644Z,320
2018-03-02T08:53:17.630Z,325
2018-03-02T08:54:27.446Z,325
2018-03-02T08:55:37.423Z,325
2018-03-02T08:56:47.424Z,325
2018-03-02T08:57:57.507Z,325
2018-03-02T08:59:06.959Z,325
2018-03-02T09:00:17.085Z,325
2018-03-02T09:01:27.123Z,330
2018-03-02T09:02:36.576Z,335
2018-03-02T09:03:46.581Z,340
2018-03-02T09:04:56.564Z,350
2018-03-02T09:06:06.292Z,360
2018-03-02T09:07:15.744Z,365
2018-03-02T09:08:25.731Z,365
2018-03-02T09:09:35.721Z,370
2018-03-02T09:10:45.436Z,380
2018-03-02T09:11:55.303Z,380
2018-03-02T09:13:04.752Z,380
2018-03-02T09:14:14.474Z,380
2018-03-02T09:15:23.923Z,385
2018-03-02T09:16:33.643Z,385
2018-03-02T09:17:43.360Z,390
2018-03-02T09:18:53.079Z,390
2018-03-02T09:20:02.801Z,395
2018-03-02T09:21:12.524Z,400
2018-03-02T09:22:22.276Z,415
2018-03-02T09:23:32.007Z,420
2018-03-02T09:24:42.002Z,430
2018-03-02T09:25:51.985Z,430
2018-03-02T09:27:01.974Z,445
2018-03-02T09:28:11.961Z,440
2018-03-02T09:29:21.949Z,440
2018-03-02T09:30:31.399Z,440
2018-03-02T09:31:41.123Z,440
2018-03-02T09:32:50.861Z,440
2018-03-02T09:34:00.579Z,440
2018-03-02T09:35:10.028Z,435
2018-03-02T09:36:19.752Z,430
2018-03-02T09:37:29.532Z,430
2018-03-02T09:38:39.248Z,420
2018-03-02T09:39:49.242Z,415
2018-03-02T09:40:58.694Z,415
2018-03-02T09:42:08.716Z,415
2018-03-02T09:43:18.744Z,415
2018-03-02T09:44:28.466Z,415
2018-03-02T09:45:38.462Z,420
2018-03-02T09:46:48.189Z,420
2018-03-02T09:47:58.181Z,425
2018-03-02T09:49:07.950Z,430
2018-03-02T09:50:17.694Z,430
2018-03-02T09:51:27.416Z,440
2018-03-02T09:52:37.136Z,440
2018-03-02T09:53:47.127Z,445
2018-03-02T09:54:56.857Z,450
2018-03-02T09:56:06.862Z,455
2018-03-02T09:57:16.608Z,460
2018-03-02T09:58:26.597Z,470
2018-03-02T09:59:36.585Z,475
2018-03-02T10:00:46.575Z,485
2018-03-02T10:01:56.568Z,490
2018-03-02T10:03:06.576Z,490
2018-03-02T10:04:16.301Z,495
2018-03-02T10:05:26.025Z,500
2018-03-02T10:06:35.745Z,505
2018-03-02T10:07:45.471Z,510
2018-03-02T10:08:54.656Z,515
2018-03-02T10:10:04.644Z,520
2018-03-02T10:11:14.635Z,520
2018-03-02T10:12:24.627Z,525
2018-03-02T10:13:34.618Z,530
2018-03-02T10:14:44.066Z,540
2018-03-02T10:15:53.889Z,545
2018-03-02T10:17:03.942Z,550
2018-03-02T10:18:13.939Z,560
2018-03-02T10:19:23.391Z,565
2018-03-02T10:20:33.388Z,575
2018-03-02T10:21:43.380Z,580
2018-03-02T10:22:53.382Z,590
2018-03-02T10:24:03.369Z,600
2018-03-02T10:25:13.360Z,600
2018-03-02T10:26:23.081Z,600
2018-03-02T10:27:33.068Z,605
2018-03-02T10:28:42.516Z,600
2018-03-02T10:29:52.511Z,600
2018-03-02T10:31:02.234Z,595
2018-03-02T10:32:12.244Z,590
2018-03-02T10:33:22.283Z,590
2018-03-02T10:34:32.016Z,590
2018-03-02T10:35:42.078Z,595
2018-03-02T10:36:51.811Z,600
2018-03-02T10:38:01.289Z,600
2018-03-02T10:39:11.383Z,605
2018-03-02T10:40:20.846Z,600
2018-03-02T10:41:30.924Z,595
2018-03-02T10:42:40.616Z,595
2018-03-02T10:43:50.071Z,595
2018-03-02T10:44:59.790Z,600
2018-03-02T10:46:09.248Z,600
2018-03-02T10:47:18.972Z,600
2018-03-02T10:48:28.963Z,595
2018-03-02T10:49:38.954Z,590
2018-03-02T10:50:48.942Z,595
2018-03-02T10:51:58.663Z,595
2018-03-02T10:53:08.652Z,590
2018-03-02T10:54:18.377Z,580
2018-03-02T10:55:28.114Z,575
2018-03-02T10:56:37.847Z,570
2018-03-02T10:57:47.594Z,570
2018-03-02T10:58:57.321Z,560
2018-03-02T11:00:06.776Z,550
2018-03-02T11:01:16.235Z,550
2018-03-02T11:02:25.728Z,555
2018-03-02T11:03:35.725Z,550
2018-03-02T11:04:45.185Z,560
2018-03-02T11:05:55.185Z,550
2018-03-02T11:07:04.915Z,560
2018-03-02T11:08:14.642Z,580
2018-03-02T11:09:24.367Z,600
2018-03-02T11:10:34.359Z,595
2018-03-02T11:11:44.088Z,610
2018-03-02T11:12:53.547Z,610
2018-03-02T11:14:03.540Z,600
2018-03-02T11:15:13.001Z,600
2018-03-02T11:16:22.996Z,585
2018-03-02T11:17:32.448Z,595
2018-03-02T11:18:41.905Z,615
2018-03-02T11:19:51.629Z,610
2018-03-02T11:21:01.388Z,615
2018-03-02T11:22:11.389Z,630
2018-03-02T11:23:21.120Z,645
2018-03-02T11:24:30.584Z,645
2018-03-02T11:25:40.412Z,630
2018-03-02T11:26:50.407Z,615
2018-03-02T11:28:00.398Z,625
2018-03-02T11:29:09.866Z,640
2018-03-02T11:30:19.855Z,635
2018-03-02T11:31:29.848Z,630
2018-03-02T11:32:39.575Z,630
2018-03-02T11:33:49.304Z,625
2018-03-02T11:34:59.302Z,625
2018-03-02T11:36:09.309Z,630
2018-03-02T11:37:19.313Z,625
2018-03-02T11:38:28.767Z,625
2018-03-02T11:39:38.493Z,625
2018-03-02T11:40:48.065Z,635
2018-03-02T11:41:57.792Z,630
2018-03-02T11:43:07.256Z,635
2018-03-02T11:44:17.252Z,635
2018-03-02T11:45:27.269Z,635
2018-03-02T11:46:36.999Z,630
2018-03-02T11:47:47.004Z,630
2018-03-02T11:48:56.840Z,630
2018-03-02T11:50:06.576Z,625
2018-03-02T11:51:16.303Z,620
2018-03-02T11:52:26.040Z,615
2018-03-02T11:53:36.038Z,610
2018-03-02T11:54:46.036Z,605
2018-03-02T11:55:55.765Z,600
2018-03-02T11:57:05.504Z,580
2018-03-02T11:58:15.238Z,575
2018-03-02T11:59:25.238Z,570
2018-03-02T12:00:35.300Z,565
2018-03-02T12:01:45.026Z,565
2018-03-02T12:02:54.778Z,575
2018-03-02T12:04:04.245Z,580
2018-03-02T12:05:13.438Z,590
2018-03-02T12:06:23.173Z,590
2018-03-02T12:07:32.639Z,595
2018-03-02T12:08:42.649Z,600
2018-03-02T12:09:52.372Z,600
2018-03-02T12:11:02.363Z,600
2018-03-02T12:12:12.196Z,600
2018-03-02T12:13:22.222Z,600
2018-03-02T12:14:32.224Z,590
2018-03-02T12:15:41.959Z,580
2018-03-02T12:16:52.123Z,575
2018-03-02T12:18:02.126Z,570
2018-03-02T12:19:11.859Z,565
2018-03-02T12:20:21.614Z,565
2018-03-02T12:21:31.076Z,560
2018-03-02T12:22:41.153Z,555
2018-03-02T12:23:50.809Z,555
2018-03-02T12:25:00.532Z,555
2018-03-02T12:26:10.523Z,555
2018-03-02T12:27:19.983Z,555
2018-03-02T12:28:30.145Z,550
2018-03-02T12:29:39.597Z,550
2018-03-02T12:30:49.061Z,545
2018-03-02T12:31:59.061Z,545
2018-03-02T12:33:09.058Z,545
2018-03-02T12:34:18.562Z,540
2018-03-02T12:35:28.024Z,540
2018-03-02T12:36:38.234Z,540
2018-03-02T12:37:47.971Z,540
2018-03-02T12:38:57.793Z,540
2018-03-02T12:40:07.526Z,540
2018-03-02T12:41:17.247Z,540
2018-03-02T12:42:27.234Z,540
2018-03-02T12:43:37.232Z,545
2018-03-02T12:44:46.772Z,550
2018-03-02T12:45:56.760Z,545
2018-03-02T12:47:06.762Z,535
2018-03-02T12:48:16.797Z,535
2018-03-02T12:49:26.628Z,540
2018-03-02T12:50:36.349Z,550
2018-03-02T12:51:46.071Z,555
2018-03-02T12:52:55.800Z,550
2018-03-02T12:54:05.851Z,545
2018-03-02T12:55:16.199Z,540
2018-03-02T12:56:25.916Z,545
2018-03-02T12:57:35.910Z,555
2018-03-02T12:58:45.633Z,565
2018-03-02T12:59:55.634Z,580
2018-03-02T13:01:05.626Z,590
2018-03-02T13:02:15.347Z,590
2018-03-02T13:03:24.808Z,590
2018-03-02T13:04:34.802Z,590
2018-03-02T13:05:44.526Z,585
2018-03-02T13:06:54.249Z,580
2018-03-02T13:08:04.247Z,580
2018-03-02T13:09:14.278Z,570
2018-03-02T13:10:23.734Z,560
2018-03-02T13:11:33.728Z,555
2018-03-02T13:12:43.185Z,545
2018-03-02T13:13:52.921Z,530
2018-03-02T13:15:02.382Z,515
2018-03-02T13:16:12.106Z,505
2018-03-02T13:17:21.838Z,490
2018-03-02T13:18:31.300Z,485
2018-03-02T13:19:41.033Z,480
2018-03-02T13:20:50.756Z,470
2018-03-02T13:22:00.487Z,465
2018-03-02T13:23:10.476Z,465
2018-03-02T13:24:20.211Z,460
2018-03-02T13:25:30.219Z,460
2018-03-02T13:26:40.213Z,460
2018-03-02T13:27:50.208Z,450
2018-03-02T13:28:59.939Z,450
2018-03-02T13:30:10.001Z,450
2018-03-02T13:31:19.461Z,445
2018-03-02T13:32:29.191Z,445
2018-03-02T13:33:39.182Z,440
2018-03-02T13:34:49.177Z,440
2018-03-02T13:35:58.905Z,435
2018-03-02T13:37:08.631Z,435
2018-03-02T13:38:18.631Z,435
2018-03-02T13:39:27.939Z,430
2018-03-02T13:40:37.404Z,430
2018-03-02T13:41:47.399Z,435
2018-03-02T13:42:57.154Z,435
2018-03-02T13:44:06.930Z,435
2018-03-02T13:45:16.923Z,435
2018-03-02T13:46:26.920Z,430
2018-03-02T13:47:36.383Z,430
2018-03-02T13:48:46.381Z,425
2018-03-02T13:49:56.113Z,425
2018-03-02T13:51:05.304Z,420
2018-03-02T13:52:14.497Z,415
2018-03-02T13:53:23.423Z,410
2018-03-02T13:54:33.147Z,405
2018-03-02T13:55:42.876Z,400
2018-03-02T13:56:52.868Z,400
2018-03-02T13:58:02.059Z,400
2018-03-02T13:59:11.787Z,400
2018-03-02T14:00:21.582Z,405
2018-03-02T14:01:31.590Z,405
2018-03-02T14:02:41.322Z,400
2018-03-02T14:03:51.056Z,400
2018-03-02T14:05:01.045Z,395
2018-03-02T14:06:10.515Z,390
2018-03-02T14:07:20.244Z,390
2018-03-02T14:08:30.239Z,390
2018-03-02T14:09:40.230Z,385
2018-03-02T14:10:50.227Z,385
2018-03-02T14:12:00.223Z,380
2018-03-02T14:13:09.948Z,375
2018-03-02T14:14:19.822Z,370
2018-03-02T14:15:29.549Z,365
2018-03-02T14:16:39.272Z,365
2018-03-02T14:17:49.000Z,355
2018-03-02T14:18:58.997Z,350
2018-03-02T14:20:08.737Z,345
2018-03-02T14:21:18.206Z,345
2018-03-02T14:22:28.203Z,340
2018-03-02T14:23:38.197Z,340
2018-03-02T14:24:48.193Z,340
2018-03-02T14:25:58.199Z,340
2018-03-02T14:27:07.925Z,340
2018-03-02T14:28:17.648Z,340
2018-03-02T14:29:27.644Z,335
2018-03-02T14:30:37.466Z,330
2018-03-02T14:31:47.455Z,320
2018-03-02T14:32:56.650Z,315
2018-03-02T14:34:06.704Z,310
2018-03-02T14:35:16.430Z,310
2018-03-02T14:36:26.167Z,300
2018-03-02T14:37:36.158Z,295
2018-03-02T14:38:46.155Z,290
2018-03-02T14:39:56.142Z,285
2018-03-02T14:41:05.597Z,280
2018-03-02T14:42:15.604Z,275
2018-03-02T14:43:25.345Z,270
2018-03-02T14:44:35.075Z,265
2018-03-02T14:45:45.065Z,260
2018-03-02T14:46:55.060Z,260
2018-03-02T14:48:04.252Z,255
2018-03-02T14:49:13.981Z,255
2018-03-02T14:50:23.444Z,245
2018-03-02T14:51:33.226Z,240
2018-03-02T14:52:42.957Z,240
2018-03-02T14:53:52.946Z,240
2018-03-02T14:55:02.778Z,235
2018-03-02T14:56:12.520Z,225
2018-03-02T14:57:22.629Z,220
2018-03-02T14:58:32.099Z,210
2018-03-02T14:59:42.096Z,200
2018-03-02T15:00:51.815Z,195
2018-03-02T15:02:01.807Z,195
2018-03-02T15:03:11.540Z,185
2018-03-02T15:04:21.528Z,175
2018-03-02T15:05:31.544Z,170
2018-03-02T15:06:41.688Z,170
2018-03-02T15:07:51.678Z,165
2018-03-02T15:09:00.869Z,160
2018-03-02T15:10:10.060Z,155
2018-03-02T15:11:19.784Z,155
2018-03-02T15:12:29.779Z,150
2018-03-02T15:13:39.510Z,150
2018-03-02T15:14:49.241Z,155
2018-03-02T15:15:59.248Z,150
2018-03-02T15:17:08.973Z,150
2018-03-02T15:18:18.697Z,150
2018-03-02T15:19:28.152Z,150
2018-03-02T15:20:38.145Z,145
2018-03-02T15:21:47.609Z,145
2018-03-02T15:22:57.080Z,145
2018-03-02T15:24:07.075Z,140
2018-03-02T15:25:17.081Z,135
2018-03-02T15:26:27.071Z,135
2018-03-02T15:27:36.258Z,130
2018-03-02T15:28:45.979Z,125
2018-03-02T15:29:55.168Z,125
2018-03-02T15:31:04.977Z,125
2018-03-02T15:32:14.982Z,125
2018-03-02T15:33:24.767Z,120
2018-03-02T15:34:34.800Z,120
2018-03-02T15:35:44.537Z,115
2018-03-02T15:36:54.262Z,115
2018-03-02T15:38:03.985Z,110
2018-03-02T15:39:13.704Z,110
2018-03-02T15:40:23.701Z,105
2018-03-02T15:41:33.432Z,100
2018-03-02T15:42:43.435Z,100
2018-03-02T15:43:53.429Z,95
2018-03-02T15:45:02.883Z,95
2018-03-02T15:46:12.876Z,90
2018-03-02T15:47:23.217Z,90
2018-03-02T15:48:33.224Z,85
2018-03-02T15:49:43.449Z,85
2018-03-02T15:50:53.431Z,80
2018-03-02T15:52:03.417Z,80
2018-03-02T15:53:13.139Z,75
2018-03-02T15:54:23.145Z,75
2018-03-02T15:55:32.607Z,70
2018-03-02T15:56:42.329Z,70
2018-03-02T15:57:52.321Z,70
2018-03-02T15:59:02.035Z,70
2018-03-02T16:00:12.052Z,65
2018-03-02T16:01:22.047Z,65
2018-03-02T16:02:32.031Z,65
2018-03-02T16:03:41.750Z,60
2018-03-02T16:04:51.203Z,60
2018-03-02T16:06:00.920Z,60
2018-03-02T16:07:10.376Z,55
2018-03-02T16:08:20.099Z,55
2018-03-02T16:09:29.579Z,55
2018-03-02T16:10:39.568Z,50
2018-03-02T16:11:49.561Z,50
2018-03-02T16:12:59.548Z,50
2018-03-02T16:14:09.266Z,45
2018-03-02T16:15:18.986Z,45
2018-03-02T16:16:28.970Z,40
2018-03-02T16:17:38.953Z,40
2018-03-02T16:18:48.946Z,35
2018-03-02T16:19:58.935Z,35
2018-03-02T16:21:08.929Z,35
2018-03-02T16:22:18.655Z,30
2018-03-02T16:23:28.654Z,30
2018-03-02T16:24:38.646Z,25
2018-03-02T16:25:48.644Z,25
2018-03-02T16:26:58.369Z,25
2018-03-02T16:28:08.663Z,20
2018-03-02T16:29:18.385Z,20
2018-03-02T16:30:28.372Z,20
2018-03-02T16:31:38.137Z,20
2018-03-02T16:32:47.914Z,15
2018-03-02T16:33:57.906Z,15